Time;durP1;ratioP1;P1;durP2;ratioP2;P2;SDS_P1;SDS_P2;PMS_P1;PMS_P2;Temp;Humidity;BMP_temperature;BMP_pressure;BME280_temperature;BME280_humidity;BME280_pressure;Samples;Min_cycle;Max_cycle;Signal;HPM_P1;HPM_P2
2021/06/01 03:53:52;;;;;;;12.77;6.60;;;;;;;;;;5557404;22;20073;-65
2021/06/01 03:56:19;;;;;;;10.93;6.82;;;;;;;;;;5057810;28;20052;-69
2021/06/01 03:58:45;;;;;;;9.90;6.22;;;;;;;;;;5033984;28;20369;-65
2021/06/01 04:01:11;;;;;;;10.70;5.88;;;;;;;;;;5054414;28;20033;-65
2021/06/01 04:03:41;;;;;;;10.40;6.13;;;;;;;;;;5051349;28;20025;-65
2021/06/01 04:06:25;;;;;;;9.48;6.53;;;;;;;;;;5051589;28;20036;-65
2021/06/01 04:08:52;;;;;;;9.38;6.07;;;;;;;;;;5036325;28;20362;-71
2021/06/01 04:11:18;;;;;;;10.57;6.25;;;;;;;;;;5051660;28;20036;-69
2021/06/01 04:13:44;;;;;;;10.80;6.78;;;;;;;;;;5051567;28;20032;-70
2021/06/01 04:16:10;;;;;;;9.45;6.07;;;;;;;;;;5053571;28;20052;-69
2021/06/01 04:18:36;;;;;;;9.45;6.38;;;;;;;;;;5052528;28;20499;-69
2021/06/01 04:21:02;;;;;;;10.98;6.38;;;;;;;;;;5035142;28;20124;-69
2021/06/01 04:23:28;;;;;;;11.05;5.30;;;;;;;;;;5053628;28;20033;-70
2021/06/01 04:25:59;;;;;;;8.80;5.30;;;;;;;;;;5051061;28;20028;-70
2021/06/01 04:28:26;;;;;;;9.45;4.75;;;;;;;;;;5033132;28;20021;-68
2021/06/01 04:30:52;;;;;;;11.57;5.28;;;;;;;;;;5049232;28;20025;-69
2021/06/01 04:33:18;;;;;;;8.02;4.20;;;;;;;;;;5050181;28;20027;-70
2021/06/01 04:35:45;;;;;;;8.85;5.13;;;;;;;;;;5046994;28;20074;-70
2021/06/01 04:38:11;;;;;;;8.75;5.45;;;;;;;;;;5049082;28;20033;-69
2021/06/01 04:40:37;;;;;;;9.68;4.88;;;;;;;;;;5050102;28;20036;-69
2021/06/01 04:43:03;;;;;;;7.13;5.18;;;;;;;;;;5047999;28;20029;-68
2021/06/01 04:45:29;;;;;;;8.20;4.57;;;;;;;;;;5047928;28;20393;-70
2021/06/01 04:47:55;;;;;;;8.82;5.40;;;;;;;;;;5048130;28;20040;-69
2021/06/01 04:50:21;;;;;;;6.82;5.03;;;;;;;;;;5047859;28;20032;-70
2021/06/01 04:52:47;;;;;;;5.05;4.25;;;;;;;;;;5049447;28;20020;-70
2021/06/01 04:55:13;;;;;;;6.95;4.68;;;;;;;;;;5052987;28;20421;-70
2021/06/01 04:57:40;;;;;;;6.13;4.10;;;;;;;;;;5054860;28;20037;-70
2021/06/01 05:00:06;;;;;;;9.40;5.15;;;;;;;;;;5054668;28;20087;-71
2021/06/01 05:02:32;;;;;;;10.73;4.85;;;;;;;;;;5054749;28;20075;-70
2021/06/01 05:04:58;;;;;;;8.85;4.68;;;;;;;;;;5054859;28;20039;-70
2021/06/01 05:07:24;;;;;;;8.75;4.32;;;;;;;;;;5054573;28;20032;-69
2021/06/01 05:09:50;;;;;;;4.43;4.03;;;;;;;;;;5054623;28;20075;-71
2021/06/01 05:12:16;;;;;;;6.55;4.40;;;;;;;;;;5054582;28;20029;-71
2021/06/01 05:14:42;;;;;;;6.90;4.07;;;;;;;;;;5054224;28;20032;-71
2021/06/01 05:17:08;;;;;;;7.00;4.38;;;;;;;;;;5054404;28;20449;-72
2021/06/01 05:19:34;;;;;;;7.13;4.38;;;;;;;;;;5054294;28;20048;-71
2021/06/01 05:22:00;;;;;;;7.20;4.55;;;;;;;;;;5053853;28;20068;-71
2021/06/01 12:13:17;;;;;;;1.98;1.45;;;;;;;;;;5034822;28;20393;-68
2021/06/01 12:20:54;;;;;;;3.17;1.50;;;;;;;;;;5035612;28;20446;-65
2021/06/01 12:23:24;;;;;;;5.47;1.50;;;;;;;;;;5033099;28;20026;-66
2021/06/01 12:26:29;;;;;;;4.10;1.55;;;;;;;;;;5048938;28;20060;-65
2021/06/01 12:31:59;;;;;;;4.05;1.83;;;;;;;;;;5033725;28;20116;-66
2021/06/01 12:34:36;;;;;;;4.78;2.30;;;;;;;;;;5035318;28;20052;-66
2021/06/01 12:45:27;;;;;;;4.20;1.88;;;;;;;;;;5034481;28;20049;-66
2021/06/01 14:27:55;;;;;;;4.55;1.73;;;;;;;;;;5073044;28;20502;-72
2021/06/01 14:36:16;;;;;;;3.35;1.80;;;;;;;;;;5072972;28;20040;-70
2021/06/01 14:55:29;;;;;;;5.30;2.25;;;;;;;;;;5072381;28;20071;-70
2021/06/01 15:09:30;;;;;;;2.53;1.55;;;;;;;;;;5072317;28;20396;-69
2021/06/01 16:15:36;;;;;;;17.67;9.48;;;;;;;;;;5052301;28;20040;-69
2021/06/01 16:32:18;;;;;;;12.07;7.60;;;;;;;;;;5055659;28;20076;-68
2021/06/01 17:04:48;;;;;;;5.55;2.33;;;;;;;;;;5055045;28;20036;-68
2021/06/01 17:07:32;;;;;;;4.22;2.65;;;;;;;;;;5054571;28;20017;-67
2021/06/01 17:12:48;;;;;;;9.82;3.22;;;;;;;;;;5055175;28;20082;-67
2021/06/01 17:15:16;;;;;;;5.25;2.50;;;;;;;;;;5054497;28;20045;-67
2021/06/01 17:17:45;;;;;;;7.47;2.30;;;;;;;;;;5054377;28;20037;-68
2021/06/01 17:31:49;;;;;;;9.80;4.13;;;;;;;;;;5054140;28;20036;-68
2021/06/01 17:34:38;;;;;;;8.20;2.08;;;;;;;;;;5054162;28;20398;-67
2021/06/01 17:37:07;;;;;;;5.65;2.65;;;;;;;;;;5054304;28;20032;-67
2021/06/01 17:39:33;;;;;;;4.13;2.45;;;;;;;;;;5053805;28;20499;-68
2021/06/01 17:42:00;;;;;;;8.13;2.22;;;;;;;;;;5054011;28;20025;-67
2021/06/01 17:44:27;;;;;;;8.98;3.80;;;;;;;;;;5054117;28;20033;-68
2021/06/01 17:46:57;;;;;;;11.70;5.93;;;;;;;;;;5054017;28;20044;-68
2021/06/01 17:49:26;;;;;;;9.02;5.00;;;;;;;;;;5053910;28;20079;-68
2021/06/01 17:51:52;;;;;;;4.38;2.72;;;;;;;;;;5053934;28;20033;-68
2021/06/01 17:54:25;;;;;;;9.02;2.70;;;;;;;;;;5072362;28;20035;-67
2021/06/01 17:56:51;;;;;;;4.28;2.28;;;;;;;;;;5073584;28;20024;-68
2021/06/01 17:59:21;;;;;;;5.13;2.30;;;;;;;;;;5073620;28;20113;-67
2021/06/01 18:01:47;;;;;;;5.35;2.08;;;;;;;;;;5072762;28;20033;-67
2021/06/01 18:04:17;;;;;;;3.97;2.25;;;;;;;;;;5073417;28;20029;-66
2021/06/01 18:09:28;;;;;;;6.88;2.70;;;;;;;;;;5073580;28;20063;-66
2021/06/01 18:12:09;;;;;;;3.90;2.53;;;;;;;;;;5073574;28;20025;-67
2021/06/01 19:43:22;;;;;;;7.35;4.30;;;;;;;;;;5064618;28;20090;-69
2021/06/01 19:51:07;;;;;;;7.53;3.83;;;;;;;;;;5065742;28;20499;-71
2021/06/01 19:53:35;;;;;;;9.00;3.70;;;;;;;;;;5062787;28;20020;-68
2021/06/01 19:56:01;;;;;;;6.72;3.53;;;;;;;;;;5072598;28;20039;-69
2021/06/01 19:58:28;;;;;;;8.07;4.10;;;;;;;;;;5070262;28;20028;-68
2021/06/01 20:01:07;;;;;;;10.65;3.80;;;;;;;;;;5071213;28;20433;-70
2021/06/01 20:03:39;;;;;;;8.50;4.22;;;;;;;;;;5051821;28;20044;-68
2021/06/01 20:06:08;;;;;;;12.13;4.30;;;;;;;;;;5057659;28;20029;-68
2021/06/01 20:08:34;;;;;;;9.27;5.47;;;;;;;;;;5062063;28;20024;-68
2021/06/01 20:11:00;;;;;;;9.40;4.10;;;;;;;;;;5061930;28;20078;-70
2021/06/01 20:13:26;;;;;;;13.07;4.35;;;;;;;;;;5064559;28;20029;-69
2021/06/01 20:15:52;;;;;;;12.23;4.72;;;;;;;;;;5056397;28;20029;-67
2021/06/01 20:18:21;;;;;;;12.30;4.70;;;;;;;;;;5054853;28;20448;-66
2021/06/01 20:20:48;;;;;;;10.82;4.50;;;;;;;;;;5055596;28;20056;-66
2021/06/01 20:23:14;;;;;;;6.63;4.65;;;;;;;;;;5055351;28;20079;-66
2021/06/01 20:25:46;;;;;;;8.65;4.55;;;;;;;;;;5055593;28;20496;-66
2021/06/01 20:28:20;;;;;;;10.00;3.97;;;;;;;;;;5055787;28;20025;-66
2021/06/01 20:30:47;;;;;;;9.38;3.85;;;;;;;;;;5037586;28;20393;-67
2021/06/01 20:33:14;;;;;;;7.95;4.13;;;;;;;;;;5055448;28;20021;-66
2021/06/01 20:35:48;;;;;;;12.07;6.70;;;;;;;;;;5055373;28;20029;-66
2021/06/01 20:38:16;;;;;;;11.85;6.18;;;;;;;;;;5055599;28;20059;-67
2021/06/01 20:40:42;;;;;;;12.98;5.30;;;;;;;;;;5055035;28;20131;-67
2021/06/01 20:43:08;;;;;;;14.02;6.40;;;;;;;;;;5055362;28;20033;-66
2021/06/01 20:45:35;;;;;;;9.18;5.65;;;;;;;;;;5054978;28;20031;-67
2021/06/01 20:48:03;;;;;;;12.30;6.70;;;;;;;;;;5055209;28;20489;-67
2021/06/01 20:50:31;;;;;;;19.85;8.73;;;;;;;;;;5054541;28;20061;-70
2021/06/01 20:52:57;;;;;;;20.23;10.32;;;;;;;;;;5074065;28;20039;-67
2021/06/01 20:55:23;;;;;;;19.05;9.45;;;;;;;;;;5074326;28;20031;-67
2021/06/01 20:57:51;;;;;;;21.67;9.48;;;;;;;;;;5074566;28;20090;-69
2021/06/01 21:00:17;;;;;;;16.65;8.40;;;;;;;;;;5066099;28;20110;-69
2021/06/01 21:02:44;;;;;;;18.80;8.48;;;;;;;;;;5073281;28;20036;-69
2021/06/01 21:05:12;;;;;;;22.23;9.95;;;;;;;;;;5073907;28;20495;-69
2021/06/01 21:07:38;;;;;;;21.42;9.35;;;;;;;;;;5074486;28;20465;-68
2021/06/01 21:10:05;;;;;;;17.65;9.15;;;;;;;;;;5074510;28;20028;-67
2021/06/01 21:12:31;;;;;;;20.35;8.65;;;;;;;;;;5073945;28;20021;-69
2021/06/01 21:14:58;;;;;;;21.83;8.80;;;;;;;;;;5074669;28;20127;-69
2021/06/01 21:17:25;;;;;;;19.20;7.72;;;;;;;;;;5074394;28;20055;-69
2021/06/01 21:19:51;;;;;;;13.23;6.82;;;;;;;;;;5073781;28;20044;-70
2021/06/01 21:22:17;;;;;;;13.07;6.57;;;;;;;;;;5074095;28;20047;-70
2021/06/01 21:24:44;;;;;;;13.55;7.07;;;;;;;;;;5063907;28;20444;-68
2021/06/01 21:27:10;;;;;;;14.43;6.38;;;;;;;;;;5054345;28;20055;-65
2021/06/01 21:29:37;;;;;;;11.27;6.82;;;;;;;;;;5053974;28;20127;-67
2021/06/01 21:32:09;;;;;;;13.88;7.15;;;;;;;;;;5054001;28;20025;-66
2021/06/01 21:34:39;;;;;;;13.65;6.78;;;;;;;;;;5054445;28;20029;-66
2021/06/01 21:37:06;;;;;;;12.32;6.72;;;;;;;;;;5054030;28;20533;-67
2021/06/01 21:39:33;;;;;;;12.80;6.95;;;;;;;;;;5050706;28;20068;-67
2021/06/01 21:42:01;;;;;;;11.70;6.07;;;;;;;;;;5054033;28;20466;-69
2021/06/01 21:44:27;;;;;;;12.05;5.75;;;;;;;;;;5054528;28;20860;-67
2021/06/01 21:47:00;;;;;;;15.55;5.50;;;;;;;;;;5071992;28;20036;-69
2021/06/01 21:49:26;;;;;;;8.35;5.05;;;;;;;;;;5073313;28;20032;-67
2021/06/01 21:51:56;;;;;;;8.40;4.95;;;;;;;;;;5055552;28;20032;-67
2021/06/01 21:54:26;;;;;;;8.82;5.65;;;;;;;;;;5073352;28;20094;-70
2021/06/01 21:56:52;;;;;;;7.13;4.73;;;;;;;;;;5055430;28;20392;-69
2021/06/01 21:59:21;;;;;;;8.57;5.40;;;;;;;;;;5073334;28;20295;-70
2021/06/01 22:01:48;;;;;;;12.60;5.88;;;;;;;;;;5073458;28;20036;-70
2021/06/01 22:04:15;;;;;;;15.65;6.07;;;;;;;;;;5073165;28;20045;-69
2021/06/01 22:06:41;;;;;;;11.13;5.90;;;;;;;;;;5073077;28;20024;-67
2021/06/01 22:09:07;;;;;;;14.38;5.72;;;;;;;;;;5073154;28;20056;-68
2021/06/01 22:11:33;;;;;;;10.75;5.38;;;;;;;;;;5073226;28;20052;-68
2021/06/01 22:14:01;;;;;;;9.30;5.00;;;;;;;;;;5072992;28;20504;-71
2021/06/01 22:16:29;;;;;;;10.45;5.05;;;;;;;;;;5072754;28;20025;-71
2021/06/01 22:18:56;;;;;;;14.00;5.90;;;;;;;;;;5054008;28;20044;-67
2021/06/01 22:21:22;;;;;;;9.98;5.75;;;;;;;;;;5055043;28;20027;-68
2021/06/01 22:23:58;;;;;;;9.93;5.25;;;;;;;;;;5054973;28;20060;-71
2021/06/01 22:26:24;;;;;;;11.25;5.47;;;;;;;;;;5055020;28;20377;-67
2021/06/01 22:28:51;;;;;;;8.55;5.53;;;;;;;;;;5072826;28;20028;-71
2021/06/01 22:31:19;;;;;;;13.77;5.07;;;;;;;;;;5072710;28;20083;-70
2021/06/01 22:33:45;;;;;;;13.45;6.53;;;;;;;;;;5072829;28;20150;-70
2021/06/01 22:36:13;;;;;;;8.50;4.75;;;;;;;;;;5072669;28;20024;-70
2021/06/01 22:38:40;;;;;;;9.48;5.43;;;;;;;;;;5072655;28;20037;-67
2021/06/01 22:41:06;;;;;;;8.85;5.35;;;;;;;;;;5072722;28;20495;-68
2021/06/01 22:43:34;;;;;;;14.80;5.38;;;;;;;;;;5072645;28;20033;-67
2021/06/01 22:46:10;;;;;;;12.85;5.43;;;;;;;;;;5072481;28;20036;-70
2021/06/01 22:48:41;;;;;;;12.18;5.32;;;;;;;;;;5072414;28;20036;-69
2021/06/01 22:51:08;;;;;;;8.68;5.05;;;;;;;;;;5072666;28;20492;-68
2021/06/01 22:53:34;;;;;;;12.73;5.90;;;;;;;;;;5072629;28;20033;-66
2021/06/01 22:56:01;;;;;;;10.57;5.63;;;;;;;;;;5072374;28;20035;-68
2021/06/01 22:58:30;;;;;;;9.85;4.70;;;;;;;;;;5072446;28;20043;-67
2021/06/01 23:00:58;;;;;;;10.05;5.25;;;;;;;;;;5072533;28;20062;-69
2021/06/01 23:03:25;;;;;;;11.60;5.35;;;;;;;;;;5072378;28;20476;-66
2021/06/01 23:05:51;;;;;;;14.25;4.85;;;;;;;;;;5072262;28;20090;-69
2021/06/01 23:08:17;;;;;;;11.25;4.18;;;;;;;;;;5072435;28;20427;-68
2021/06/01 23:10:44;;;;;;;9.13;4.07;;;;;;;;;;5072403;28;20032;-69
2021/06/01 23:13:11;;;;;;;9.13;4.70;;;;;;;;;;5072199;28;20025;-68
2021/06/01 23:15:37;;;;;;;8.48;4.70;;;;;;;;;;5072128;28;20028;-69
2021/06/01 23:18:03;;;;;;;12.75;4.70;;;;;;;;;;5071876;28;20105;-69
2021/06/01 23:20:29;;;;;;;7.00;3.88;;;;;;;;;;5072308;28;20028;-67
2021/06/01 23:22:56;;;;;;;7.03;4.38;;;;;;;;;;5072068;28;20032;-67
2021/06/01 23:25:24;;;;;;;8.90;3.72;;;;;;;;;;5071979;28;20468;-70
2021/06/01 23:27:50;;;;;;;6.35;3.38;;;;;;;;;;5072193;28;20098;-70
2021/06/01 23:30:16;;;;;;;10.85;4.55;;;;;;;;;;5075697;28;20028;-69
2021/06/01 23:32:42;;;;;;;8.23;4.45;;;;;;;;;;5076057;28;20438;-69
2021/06/01 23:35:12;;;;;;;7.50;4.38;;;;;;;;;;5076129;28;20028;-69
2021/06/01 23:37:41;;;;;;;7.70;4.50;;;;;;;;;;5076047;28;20476;-69
